EJU4915 LFPO-EGHI
Flight info
| Callsign | EJU4915 |
|---|---|
| Flight time | 0h 45m |
| Altitude | 32000 |
| Route | OPALE DCT KESAX DCT KUNAV/N0408F260 N20 ELDAX |
| Aircraft | A320/M-SDE3FGHIRWY/LB1 |
Departure
| Time | 2026-05-09 20:41 |
|---|---|
| Airport | Paris-Orly Airport (LFPO) |
Arrival
| Time | 2026-05-09 21:26 |
|---|---|
| Airport | Southampton Airport (EGHI) |
| Time | Latitude | Longitude | Altitude | Speed | Heading |
|---|---|---|---|---|---|
| 2026-05-09 20:19 | 48.72570 | 2.36132 | 298 ft | 0 kts | 348° |
| 2026-05-09 20:36 | 48.72567 | 2.36133 | 293 ft | 3 kts | 348° |
| 2026-05-09 20:36 | 48.72541 | 2.36141 | 293 ft | 4 kts | 348° |
| 2026-05-09 20:36 | 48.72520 | 2.36149 | 297 ft | 4 kts | 330° |
| 2026-05-09 20:36 | 48.72503 | 2.36175 | 298 ft | 4 kts | 283° |
| 2026-05-09 20:37 | 48.72503 | 2.36211 | 296 ft | 4 kts | 254° |
| 2026-05-09 20:37 | 48.72506 | 2.36228 | 297 ft | 0 kts | 254° |
| 2026-05-09 20:39 | 48.72506 | 2.36226 | 293 ft | 2 kts | 254° |
| 2026-05-09 20:39 | 48.72427 | 2.36251 | 295 ft | 23 kts | 142° |
| 2026-05-09 20:39 | 48.72305 | 2.36313 | 297 ft | 24 kts | 142° |
| 2026-05-09 20:39 | 48.72174 | 2.36533 | 296 ft | 18 kts | 144° |
| 2026-05-09 20:40 | 48.72124 | 2.36558 | 296 ft | 15 kts | 167° |
| 2026-05-09 20:40 | 48.72086 | 2.36640 | 301 ft | 7 kts | 66° |
| 2026-05-09 20:40 | 48.72127 | 2.36872 | 294 ft | 57 kts | 75° |
| 2026-05-09 20:40 | 48.72306 | 2.37800 | 298 ft | 123 kts | 74° |
| 2026-05-09 20:41 | 48.72568 | 2.39258 | 433 ft | 160 kts | 74° |
| 2026-05-09 20:41 | 48.72871 | 2.40852 | 1208 ft | 156 kts | 73° |
| 2026-05-09 20:41 | 48.73178 | 2.42490 | 1744 ft | 171 kts | 73° |
| 2026-05-09 20:41 | 48.73519 | 2.44335 | 2109 ft | 193 kts | 74° |
| 2026-05-09 20:42 | 48.74136 | 2.46239 | 2464 ft | 215 kts | 48° |
| 2026-05-09 20:42 | 48.75513 | 2.47384 | 2883 ft | 246 kts | 10° |
| 2026-05-09 20:42 | 48.77256 | 2.46970 | 3584 ft | 265 kts | 339° |
| 2026-05-09 20:42 | 48.78900 | 2.45615 | 4541 ft | 272 kts | 328° |
| 2026-05-09 20:43 | 48.80466 | 2.43957 | 5484 ft | 277 kts | 323° |
| 2026-05-09 20:43 | 48.82024 | 2.42195 | 6445 ft | 281 kts | 322° |
| 2026-05-09 20:43 | 48.83604 | 2.40416 | 7369 ft | 284 kts | 323° |
| 2026-05-09 20:43 | 48.85217 | 2.38649 | 8310 ft | 287 kts | 324° |
| 2026-05-09 20:44 | 48.86861 | 2.36893 | 9244 ft | 291 kts | 324° |
| 2026-05-09 20:44 | 48.88540 | 2.35136 | 10144 ft | 295 kts | 324° |
| 2026-05-09 20:44 | 48.90303 | 2.33309 | 10528 ft | 318 kts | 325° |
| 2026-05-09 20:44 | 48.92204 | 2.31351 | 10884 ft | 339 kts | 325° |
| 2026-05-09 20:45 | 48.94179 | 2.29327 | 11577 ft | 346 kts | 325° |
| 2026-05-09 20:45 | 48.96190 | 2.27267 | 12373 ft | 350 kts | 325° |
| 2026-05-09 20:45 | 48.98195 | 2.25207 | 13159 ft | 354 kts | 324° |
| 2026-05-09 20:45 | 49.00272 | 2.23071 | 13937 ft | 358 kts | 324° |
| 2026-05-09 20:46 | 49.02319 | 2.20962 | 14604 ft | 362 kts | 324° |
| 2026-05-09 20:46 | 49.04416 | 2.18792 | 15267 ft | 367 kts | 323° |
| 2026-05-09 20:46 | 49.06540 | 2.16588 | 15943 ft | 371 kts | 323° |
| 2026-05-09 20:46 | 49.08679 | 2.14365 | 16649 ft | 374 kts | 323° |
| 2026-05-09 20:47 | 49.10897 | 2.12234 | 17302 ft | 380 kts | 330° |
| 2026-05-09 20:47 | 49.13380 | 2.10737 | 17926 ft | 389 kts | 342° |
| 2026-05-09 20:47 | 49.16074 | 2.10044 | 18501 ft | 397 kts | 354° |
| 2026-05-09 20:47 | 49.18864 | 2.10220 | 19030 ft | 405 kts | 6° |
| 2026-05-09 20:48 | 49.21672 | 2.10813 | 19575 ft | 409 kts | 6° |
| 2026-05-09 20:48 | 49.24507 | 2.11403 | 20116 ft | 414 kts | 6° |
| 2026-05-09 20:48 | 49.27374 | 2.11991 | 20634 ft | 418 kts | 6° |
| 2026-05-09 20:48 | 49.30274 | 2.12583 | 21157 ft | 422 kts | 6° |
| 2026-05-09 20:49 | 49.33202 | 2.13179 | 21674 ft | 426 kts | 6° |
| 2026-05-09 20:49 | 49.36156 | 2.13779 | 22169 ft | 431 kts | 7° |
| 2026-05-09 20:49 | 49.39141 | 2.14386 | 22649 ft | 435 kts | 6° |
| 2026-05-09 20:49 | 49.42172 | 2.14590 | 23113 ft | 438 kts | 356° |
| 2026-05-09 20:50 | 49.45205 | 2.14044 | 23567 ft | 440 kts | 346° |
| 2026-05-09 20:50 | 49.48153 | 2.12750 | 23969 ft | 441 kts | 336° |
| 2026-05-09 20:50 | 49.51029 | 2.11080 | 24432 ft | 443 kts | 336° |
| 2026-05-09 20:50 | 49.53912 | 2.09410 | 24927 ft | 443 kts | 335° |
| 2026-05-09 20:51 | 49.56802 | 2.07741 | 25385 ft | 444 kts | 335° |
| 2026-05-09 20:51 | 49.59696 | 2.06076 | 25839 ft | 445 kts | 335° |
| 2026-05-09 20:51 | 49.62608 | 2.04406 | 26282 ft | 447 kts | 335° |
| 2026-05-09 20:51 | 49.65525 | 2.02729 | 26719 ft | 448 kts | 335° |
| 2026-05-09 20:52 | 49.68448 | 2.01038 | 27149 ft | 449 kts | 335° |
| 2026-05-09 20:52 | 49.71379 | 1.99336 | 27586 ft | 451 kts | 335° |
| 2026-05-09 20:52 | 49.74320 | 1.97626 | 28041 ft | 452 kts | 334° |
| 2026-05-09 20:52 | 49.77258 | 1.95915 | 28510 ft | 452 kts | 334° |
| 2026-05-09 20:53 | 49.80165 | 1.94220 | 28909 ft | 453 kts | 334° |
| 2026-05-09 20:53 | 49.83122 | 1.92503 | 29020 ft | 448 kts | 334° |
| 2026-05-09 20:53 | 49.88828 | 1.89051 | 29030 ft | 434 kts | 328° |
| 2026-05-09 20:54 | 49.93737 | 1.83905 | 29032 ft | 424 kts | 316° |
| 2026-05-09 20:54 | 49.98355 | 1.78192 | 29030 ft | 424 kts | 316° |
| 2026-05-09 20:55 | 50.02971 | 1.72498 | 29037 ft | 424 kts | 316° |
| 2026-05-09 20:55 | 50.07586 | 1.66786 | 29033 ft | 423 kts | 315° |
| 2026-05-09 20:56 | 50.14255 | 1.57835 | 29037 ft | 421 kts | 313° |
| 2026-05-09 20:57 | 50.18625 | 1.51759 | 29050 ft | 421 kts | 312° |
| 2026-05-09 20:57 | 50.23022 | 1.45728 | 29049 ft | 421 kts | 313° |
| 2026-05-09 20:58 | 50.27438 | 1.39711 | 29049 ft | 421 kts | 313° |
| 2026-05-09 20:58 | 50.31845 | 1.33687 | 29056 ft | 421 kts | 313° |
| 2026-05-09 20:59 | 50.36255 | 1.27642 | 29048 ft | 421 kts | 313° |
| 2026-05-09 20:59 | 50.40622 | 1.21628 | 29046 ft | 421 kts | 312° |
| 2026-05-09 21:00 | 50.47113 | 1.12395 | 29062 ft | 414 kts | 304° |
| 2026-05-09 21:00 | 50.48769 | 1.08767 | 29066 ft | 405 kts | 293° |
| 2026-05-09 21:00 | 50.49939 | 1.04794 | 29069 ft | 397 kts | 283° |
| 2026-05-09 21:01 | 50.50804 | 0.96421 | 29062 ft | 385 kts | 264° |
| 2026-05-09 21:02 | 50.50017 | 0.83702 | 29020 ft | 398 kts | 260° |
| 2026-05-09 21:02 | 50.49736 | 0.79414 | 27776 ft | 394 kts | 260° |
| 2026-05-09 21:02 | 50.49451 | 0.75116 | 26415 ft | 395 kts | 261° |
| 2026-05-09 21:02 | 50.49177 | 0.70920 | 26026 ft | 372 kts | 261° |
| 2026-05-09 21:03 | 50.48969 | 0.66983 | 25606 ft | 355 kts | 265° |
| 2026-05-09 21:03 | 50.49109 | 0.63135 | 25098 ft | 355 kts | 274° |
| 2026-05-09 21:03 | 50.49477 | 0.59302 | 24581 ft | 354 kts | 274° |
| 2026-05-09 21:03 | 50.49840 | 0.55477 | 24088 ft | 353 kts | 274° |
| 2026-05-09 21:04 | 50.50198 | 0.51674 | 23590 ft | 352 kts | 274° |
| 2026-05-09 21:04 | 50.50555 | 0.47876 | 23074 ft | 350 kts | 274° |
| 2026-05-09 21:04 | 50.50910 | 0.44108 | 22623 ft | 349 kts | 275° |
| 2026-05-09 21:04 | 50.51264 | 0.40335 | 22179 ft | 348 kts | 275° |
| 2026-05-09 21:05 | 50.51615 | 0.36588 | 21727 ft | 346 kts | 275° |
| 2026-05-09 21:05 | 50.51958 | 0.32905 | 21281 ft | 344 kts | 275° |
| 2026-05-09 21:05 | 50.52302 | 0.29183 | 20838 ft | 343 kts | 275° |
| 2026-05-09 21:05 | 50.52641 | 0.25482 | 20388 ft | 341 kts | 275° |
| 2026-05-09 21:06 | 50.52976 | 0.21801 | 19930 ft | 340 kts | 275° |
| 2026-05-09 21:06 | 50.53311 | 0.18126 | 19476 ft | 338 kts | 275° |
| 2026-05-09 21:06 | 50.53641 | 0.14468 | 19005 ft | 338 kts | 275° |
| 2026-05-09 21:06 | 50.53972 | 0.10818 | 18534 ft | 337 kts | 275° |
| 2026-05-09 21:07 | 50.54303 | 0.07169 | 18035 ft | 337 kts | 275° |
| 2026-05-09 21:07 | 50.54628 | 0.03536 | 17555 ft | 335 kts | 275° |
| 2026-05-09 21:07 | 50.54951 | -0.00073 | 17100 ft | 332 kts | 275° |
| 2026-05-09 21:07 | 50.55273 | -0.03666 | 16632 ft | 331 kts | 275° |
| 2026-05-09 21:08 | 50.55593 | -0.07236 | 16187 ft | 330 kts | 276° |
| 2026-05-09 21:08 | 50.55911 | -0.10803 | 15740 ft | 329 kts | 275° |
| 2026-05-09 21:08 | 50.56229 | -0.14360 | 15287 ft | 328 kts | 275° |
| 2026-05-09 21:08 | 50.56545 | -0.17913 | 14846 ft | 328 kts | 276° |
| 2026-05-09 21:09 | 50.56856 | -0.21460 | 14399 ft | 327 kts | 275° |
| 2026-05-09 21:09 | 50.57166 | -0.25006 | 13952 ft | 327 kts | 276° |
| 2026-05-09 21:09 | 50.57474 | -0.28544 | 13466 ft | 326 kts | 275° |
| 2026-05-09 21:09 | 50.57776 | -0.32062 | 13006 ft | 324 kts | 275° |
| 2026-05-09 21:10 | 50.58078 | -0.35564 | 12556 ft | 321 kts | 276° |
| 2026-05-09 21:10 | 50.58536 | -0.38994 | 12087 ft | 321 kts | 287° |
| 2026-05-09 21:10 | 50.59444 | -0.42206 | 11634 ft | 322 kts | 299° |
| 2026-05-09 21:10 | 50.60753 | -0.45060 | 11164 ft | 322 kts | 311° |
| 2026-05-09 21:11 | 50.62323 | -0.47575 | 10690 ft | 322 kts | 314° |
| 2026-05-09 21:12 | 50.68194 | -0.57104 | 9917 ft | 289 kts | 304° |
| 2026-05-09 21:12 | 50.69162 | -0.59861 | 9731 ft | 288 kts | 291° |
| 2026-05-09 21:12 | 50.69796 | -0.62846 | 9364 ft | 286 kts | 287° |
| 2026-05-09 21:12 | 50.70400 | -0.65835 | 8972 ft | 285 kts | 287° |
| 2026-05-09 21:13 | 50.71004 | -0.68812 | 8584 ft | 285 kts | 287° |
| 2026-05-09 21:13 | 50.71609 | -0.71789 | 8181 ft | 284 kts | 288° |
| 2026-05-09 21:13 | 50.72016 | -0.73793 | 7915 ft | 284 kts | 288° |
| 2026-05-09 21:13 | 50.72615 | -0.76754 | 7522 ft | 283 kts | 288° |
| 2026-05-09 21:14 | 50.73210 | -0.79711 | 7124 ft | 282 kts | 288° |
| 2026-05-09 21:14 | 50.73794 | -0.82607 | 6840 ft | 280 kts | 288° |
| 2026-05-09 21:14 | 50.74394 | -0.85576 | 6587 ft | 279 kts | 288° |
| 2026-05-09 21:14 | 50.74974 | -0.88458 | 6324 ft | 279 kts | 288° |
| 2026-05-09 21:15 | 50.75559 | -0.91380 | 6058 ft | 281 kts | 289° |
| 2026-05-09 21:15 | 50.76146 | -0.94311 | 5767 ft | 280 kts | 289° |
| 2026-05-09 21:15 | 50.76728 | -0.97216 | 5485 ft | 270 kts | 289° |
| 2026-05-09 21:15 | 50.77268 | -0.99925 | 5364 ft | 249 kts | 289° |
| 2026-05-09 21:16 | 50.77667 | -1.02446 | 5269 ft | 225 kts | 279° |
| 2026-05-09 21:16 | 50.77740 | -1.04805 | 5081 ft | 208 kts | 270° |
| 2026-05-09 21:16 | 50.77715 | -1.07056 | 4708 ft | 203 kts | 271° |
| 2026-05-09 21:16 | 50.77693 | -1.09286 | 4489 ft | 201 kts | 271° |
| 2026-05-09 21:17 | 50.77670 | -1.11421 | 4329 ft | 187 kts | 271° |
| 2026-05-09 21:17 | 50.77648 | -1.13453 | 4144 ft | 184 kts | 271° |
| 2026-05-09 21:17 | 50.77626 | -1.15470 | 3992 ft | 183 kts | 272° |
| 2026-05-09 21:17 | 50.77603 | -1.17469 | 3845 ft | 179 kts | 272° |
| 2026-05-09 21:18 | 50.77579 | -1.19318 | 3690 ft | 161 kts | 272° |
| 2026-05-09 21:18 | 50.77557 | -1.21062 | 3556 ft | 157 kts | 272° |
| 2026-05-09 21:18 | 50.77536 | -1.22778 | 3426 ft | 156 kts | 273° |
| 2026-05-09 21:18 | 50.77517 | -1.24486 | 3292 ft | 155 kts | 274° |
| 2026-05-09 21:19 | 50.77930 | -1.29497 | 3093 ft | 154 kts | 288° |
| 2026-05-09 21:19 | 50.78173 | -1.31130 | 3021 ft | 152 kts | 289° |
| 2026-05-09 21:20 | 50.78412 | -1.32750 | 2952 ft | 151 kts | 288° |
| 2026-05-09 21:20 | 50.78652 | -1.34372 | 2881 ft | 152 kts | 289° |
| 2026-05-09 21:20 | 50.78892 | -1.35991 | 2809 ft | 151 kts | 289° |
| 2026-05-09 21:20 | 50.79131 | -1.37594 | 2740 ft | 152 kts | 289° |
| 2026-05-09 21:21 | 50.79374 | -1.39227 | 2668 ft | 153 kts | 289° |
| 2026-05-09 21:21 | 50.79712 | -1.40784 | 2592 ft | 147 kts | 305° |
| 2026-05-09 21:21 | 50.80371 | -1.41974 | 2531 ft | 141 kts | 330° |
| 2026-05-09 21:21 | 50.81225 | -1.42633 | 2438 ft | 134 kts | 353° |
| 2026-05-09 21:22 | 50.82127 | -1.42747 | 2307 ft | 128 kts | 13° |
| 2026-05-09 21:22 | 50.82973 | -1.42391 | 2188 ft | 127 kts | 24° |
| 2026-05-09 21:22 | 50.83813 | -1.41922 | 2073 ft | 129 kts | 25° |
| 2026-05-09 21:22 | 50.84657 | -1.41454 | 1950 ft | 128 kts | 25° |
| 2026-05-09 21:23 | 50.85498 | -1.40985 | 1826 ft | 128 kts | 26° |
| 2026-05-09 21:23 | 50.86334 | -1.40522 | 1712 ft | 127 kts | 25° |
| 2026-05-09 21:23 | 50.87173 | -1.40061 | 1567 ft | 129 kts | 24° |
| 2026-05-09 21:23 | 50.88013 | -1.39588 | 1436 ft | 128 kts | 26° |
| 2026-05-09 21:24 | 50.88848 | -1.39136 | 1346 ft | 127 kts | 25° |
| 2026-05-09 21:24 | 50.89678 | -1.38632 | 1083 ft | 128 kts | 24° |
| 2026-05-09 21:24 | 50.90518 | -1.38172 | 896 ft | 128 kts | 22° |
| 2026-05-09 21:24 | 50.91372 | -1.37714 | 717 ft | 130 kts | 21° |
| 2026-05-09 21:25 | 50.92219 | -1.37242 | 522 ft | 127 kts | 22° |
| 2026-05-09 21:25 | 50.93064 | -1.36768 | 359 ft | 129 kts | 21° |
| 2026-05-09 21:25 | 50.93917 | -1.36295 | 183 ft | 131 kts | 24° |
| 2026-05-09 21:25 | 50.94744 | -1.35837 | 41 ft | 117 kts | 21° |
| 2026-05-09 21:26 | 50.95326 | -1.35506 | 40 ft | 51 kts | 19° |
| 2026-05-09 21:26 | 50.95543 | -1.35398 | 42 ft | 29 kts | 19° |
| 2026-05-09 21:26 | 50.95738 | -1.35294 | 41 ft | 29 kts | 18° |
| 2026-05-09 21:26 | 50.95878 | -1.35248 | 42 ft | 15 kts | 26° |
| 2026-05-09 21:27 | 50.95868 | -1.35207 | 43 ft | 4 kts | 202° |
| 2026-05-09 21:27 | 50.95758 | -1.35270 | 43 ft | 29 kts | 202° |
| 2026-05-09 21:27 | 50.95555 | -1.35389 | 44 ft | 32 kts | 201° |
| 2026-05-09 21:27 | 50.95341 | -1.35512 | 41 ft | 34 kts | 198° |
| 2026-05-09 21:28 | 50.95114 | -1.35637 | 40 ft | 33 kts | 199° |
| 2026-05-09 21:28 | 50.95023 | -1.35716 | 40 ft | 7 kts | 287° |
| 2026-05-09 21:28 | 50.95039 | -1.35797 | 39 ft | 12 kts | 296° |
| 2026-05-09 21:28 | 50.95034 | -1.35935 | 39 ft | 14 kts | 205° |
| 2026-05-09 21:29 | 50.94932 | -1.35990 | 39 ft | 17 kts | 201° |
| 2026-05-09 21:29 | 50.94894 | -1.36063 | 39 ft | 5 kts | 297° |
| 2026-05-09 21:29 | 50.94914 | -1.36080 | 38 ft | 3 kts | 2° |
| 2026-05-09 21:29 | 50.94943 | -1.36065 | 39 ft | 1 kts | 20° |
| 2026-05-09 21:30 | 50.94958 | -1.36057 | 39 ft | 0 kts | 20° |